| time (UTC) | temp F | wind direction | speed MPH | gust MPH | rain 1hr in | rain 24hr in | rain mn in | humidity % | barometer mb |
| 20260509064535 | 55 | 200 | 6.0 | 12.0 | 0.00 | 0.00 | 0.00 | 78 | 1022.8 |
| 20260509063031 | 55 | 210 | 7.0 | 12.0 | 0.00 | 0.00 | 0.00 | 79 | 1022.9 |
| 20260509061528 | 55 | 200 | 6.0 | 12.0 | 0.00 | 0.00 | 0.00 | 80 | 1022.8 |
| 20260509060031 | 54 | 214 | 3.0 | 9.0 | 0.00 | 0.00 | 0.00 | 83 | 1022.9 |
| 20260509054519 | 52 | 205 | 2.0 | 5.0 | 0.00 | 0.00 | 0.00 | 86 | 1023.0 |
| 20260509053015 | 50 | 254 | 0.0 | 0.0 | 0.00 | 0.00 | 0.00 | 88 | 1023.0 |
| 20260509051509 | 48 | 264 | 0.0 | 0.0 | 0.00 | 0.00 | 0.00 | 89 | 1023.0 |
| 20260509050019 | 46 | 264 | 0.0 | 0.0 | 0.00 | 0.00 | 0.00 | 90 | 1023.0 |
| 20260509044502 | 45 | 264 | 0.0 | 0.0 | 0.00 | 0.00 | 0.00 | 92 | 1023.0 |
| 20260509043102 | 43 | 264 | 0.0 | 0.0 | 0.00 | 0.00 | 0.00 | 95 | 1022.9 |
| 20260509041558 | 40 | 264 | 0.0 | 0.0 | 0.00 | 0.00 | 0.00 | 95 | 1023.0 |
| 20260509040058 | 38 | 264 | 0.0 | 0.0 | 0.00 | 0.00 | 0.00 | 94 | 1023.0 |
| 20260509034556 | 37 | 264 | 0.0 | 0.0 | 0.00 | 0.00 | 0.00 | 94 | 1023.2 |
| 20260509033054 | 37 | 264 | 0.0 | 0.0 | 0.00 | 0.00 | 0.00 | 94 | 1023.3 |
| 20260509031616 | 37 | 264 | 0.0 | 0.0 | 0.00 | 0.00 | 0.00 | 94 | 1023.3 |
| 20260509030051 | 37 | 264 | 0.0 | 0.0 | 0.00 | 0.00 | 0.00 | 93 | 1023.3 |
| 20260509024552 | 37 | 264 | 0.0 | 0.0 | 0.00 | 0.00 | 0.00 | 93 | 1023.3 |
| 20260509023052 | 37 | 264 | 0.0 | 0.0 | 0.00 | 0.00 | 0.00 | 92 | 1023.5 |
| 20260509021547 | 37 | 264 | 0.0 | 0.0 | 0.00 | 0.00 | 0.00 | 92 | 1023.5 |
| 20260509020046 | 37 | 264 | 0.0 | 0.0 | 0.00 | 0.00 | 0.00 | 91 | 1023.5 |
| 20260509014545 | 38 | 264 | 0.0 | 0.0 | 0.00 | 0.00 | 0.00 | 91 | 1023.5 |
| 20260509013045 | 38 | 264 | 0.0 | 0.0 | 0.00 | 0.00 | 0.00 | 91 | 1023.6 |
| 20260509011547 | 38 | 264 | 0.0 | 0.0 | 0.00 | 0.00 | 0.00 | 91 | 1023.6 |
| 20260509010043 | 39 | 264 | 0.0 | 0.0 | 0.00 | 0.00 | 0.00 | 90 | 1023.6 |
| 20260509004547 | 39 | 264 | 0.0 | 0.0 | 0.00 | 0.00 | 0.00 | 90 | 1023.7 |
| 20260509003037 | 40 | 264 | 0.0 | 0.0 | 0.00 | 0.00 | 0.00 | 90 | 1023.7 |
| 20260509001536 | 39 | 264 | 0.0 | 0.0 | 0.00 | 0.00 | 0.00 | 90 | 1023.7 |
| 20260509000044 | 39 | 264 | 0.0 | 0.0 | 0.00 | 0.00 | 0.00 | 89 | 1023.8 |
| 20260508234535 | 40 | 264 | 0.0 | 0.0 | 0.00 | 0.00 | 0.00 | 89 | 1023.8 |
| 20260508233033 | 40 | 264 | 0.0 | 0.0 | 0.00 | 0.00 | 0.00 | 89 | 1023.7 |
| 20260508231532 | 40 | 262 | 0.0 | 0.0 | 0.00 | 0.00 | 0.00 | 89 | 1023.8 |
| 20260508230030 | 41 | 262 | 0.0 | 0.0 | 0.00 | 0.00 | 0.00 | 88 | 1023.7 |
| 20260508224530 | 41 | 261 | 0.0 | 0.0 | 0.00 | 0.00 | 0.00 | 88 | 1023.7 |
| 20260508223034 | 42 | 260 | 0.0 | 0.0 | 0.00 | 0.00 | 0.00 | 88 | 1023.7 |
| 20260508221531 | 42 | 260 | 0.0 | 0.0 | 0.00 | 0.00 | 0.00 | 88 | 1023.6 |
| 20260508220028 | 43 | 260 | 0.0 | 0.0 | 0.00 | 0.00 | 0.00 | 86 | 1023.6 |
| 20260508214522 | 43 | 260 | 0.0 | 0.0 | 0.00 | 0.00 | 0.00 | 86 | 1023.7 |
| 20260508213029 | 44 | 228 | 0.0 | 0.0 | 0.00 | 0.00 | 0.00 | 86 | 1023.7 |
| 20260508211519 | 44 | 228 | 0.0 | 0.0 | 0.00 | 0.00 | 0.00 | 83 | 1023.8 |
| 20260508210018 | 47 | 228 | 0.0 | 0.0 | 0.00 | 0.00 | 0.00 | 81 | 1023.5 |
| 20260508204518 | 48 | 228 | 0.0 | 0.0 | 0.00 | 0.00 | 0.00 | 79 | 1023.4 |
| 20260508203017 | 48 | 228 | 0.0 | 0.0 | 0.00 | 0.00 | 0.00 | 80 | 1023.3 |
| 20260508201516 | 50 | 224 | 0.0 | 0.0 | 0.00 | 0.00 | 0.00 | 77 | 1023.3 |
| 20260508200016 | 50 | 224 | 0.0 | 0.0 | 0.00 | 0.00 | 0.00 | 76 | 1023.3 |
| 20260508194516 | 51 | 224 | 0.0 | 0.0 | 0.00 | 0.00 | 0.00 | 75 | 1023.2 |
| 20260508193015 | 53 | 224 | 0.0 | 0.0 | 0.00 | 0.00 | 0.00 | 72 | 1023.2 |
| 20260508191524 | 54 | 223 | 0.0 | 3.0 | 0.00 | 0.00 | 0.00 | 72 | 1023.1 |
| 20260508190015 | 54 | 220 | 1.0 | 3.0 | 0.00 | 0.00 | 0.00 | 73 | 1023.0 |
| 20260508184518 | 55 | 218 | 0.0 | 3.0 | 0.00 | 0.00 | 0.00 | 75 | 1023.0 |
| 20260508183014 | 54 | 214 | 2.0 | 4.0 | 0.00 | 0.00 | 0.00 | 75 | 1023.0 |
| 20260508181537 | 55 | 227 | 2.0 | 6.0 | 0.00 | 0.00 | 0.00 | 76 | 1023.0 |
| 20260508180014 | 55 | 214 | 3.0 | 5.0 | 0.00 | 0.00 | 0.00 | 75 | 1022.9 |
| 20260508174517 | 55 | 210 | 3.0 | 5.0 | 0.00 | 0.00 | 0.00 | 70 | 1022.8 |
| 20260508173011 | 57 | 210 | 2.0 | 6.0 | 0.00 | 0.00 | 0.00 | 67 | 1022.8 |
| 20260508171511 | 58 | 210 | 3.0 | 6.0 | 0.00 | 0.00 | 0.00 | 66 | 1022.7 |
| 20260508170010 | 58 | 220 | 3.0 | 8.0 | 0.00 | 0.00 | 0.00 | 65 | 1022.8 |
| 20260508164513 | 59 | 200 | 5.0 | 9.0 | 0.00 | 0.00 | 0.00 | 62 | 1022.8 |
| 20260508163008 | 59 | 200 | 3.0 | 9.0 | 0.00 | 0.00 | 0.00 | 59 | 1022.8 |
| 20260508161509 | 59 | 210 | 4.0 | 8.0 | 0.00 | 0.00 | 0.00 | 58 | 1022.8 |
| 20260508160013 | 59 | 210 | 4.0 | 8.0 | 0.00 | 0.00 | 0.00 | 56 | 1022.8 |
| 20260508154511 | 60 | 210 | 4.0 | 8.0 | 0.00 | 0.00 | 0.00 | 57 | 1022.8 |
| 20260508153006 | 60 | 200 | 4.0 | 9.0 | 0.00 | 0.00 | 0.00 | 57 | 1022.8 |
| 20260508151505 | 61 | 230 | 4.0 | 8.0 | 0.00 | 0.00 | 0.00 | 58 | 1022.9 |
| 20260508150005 | 61 | 218 | 4.0 | 8.0 | 0.00 | 0.00 | 0.00 | 58 | 1023.0 |
| 20260508144504 | 61 | 214 | 4.0 | 10.0 | 0.00 | 0.00 | 0.00 | 61 | 1023.1 |
| 20260508143002 | 62 | 215 | 5.0 | 10.0 | 0.00 | 0.00 | 0.00 | 57 | 1023.1 |
| 20260508141501 | 62 | 224 | 4.0 | 11.0 | 0.00 | 0.00 | 0.00 | 57 | 1023.1 |
| 20260508140115 | 62 | 216 | 2.0 | 11.0 | 0.00 | 0.00 | 0.00 | 52 | 1023.1 |
| 20260508134558 | 61 | 200 | 4.0 | 11.0 | 0.00 | 0.00 | 0.00 | 59 | 1023.2 |
| 20260508133101 | 61 | 210 | 3.0 | 9.0 | 0.00 | 0.00 | 0.00 | 59 | 1023.3 |
| 20260508131603 | 61 | 200 | 5.0 | 9.0 | 0.00 | 0.00 | 0.00 | 63 | 1023.4 |
| 20260508130054 | 61 | 232 | 4.0 | 9.0 | 0.00 | 0.00 | 0.00 | 64 | 1023.5 |
| 20260508124553 | 60 | 205 | 5.0 | 10.0 | 0.00 | 0.00 | 0.00 | 63 | 1023.5 |
| 20260508123051 | 60 | 226 | 7.0 | 11.0 | 0.00 | 0.00 | 0.00 | 64 | 1023.5 |
| 20260508121558 | 59 | 196 | 5.0 | 10.0 | 0.00 | 0.00 | 0.00 | 64 | 1023.5 |
| 20260508120057 | 59 | 200 | 5.0 | 11.0 | 0.00 | 0.00 | 0.00 | 67 | 1023.5 |
| 20260508114549 | 60 | 245 | 5.0 | 12.0 | 0.00 | 0.00 | 0.00 | 65 | 1023.5 |
| 20260508113055 | 60 | 216 | 4.0 | 9.0 | 0.00 | 0.00 | 0.00 | 70 | 1023.5 |
| 20260508111556 | 59 | 215 | 6.0 | 11.0 | 0.00 | 0.00 | 0.00 | 69 | 1023.4 |
| 20260508110057 | 60 | 227 | 4.0 | 8.0 | 0.00 | 0.00 | 0.00 | 70 | 1023.3 |
| 20260508104541 | 59 | 215 | 4.0 | 9.0 | 0.00 | 0.00 | 0.00 | 71 | 1023.4 |
| 20260508103050 | 59 | 220 | 4.0 | 11.0 | 0.00 | 0.00 | 0.00 | 71 | 1023.3 |
| 20260508101542 | 59 | 210 | 3.0 | 10.0 | 0.00 | 0.00 | 0.00 | 73 | 1023.2 |
| 20260508100039 | 59 | 205 | 6.0 | 10.0 | 0.00 | 0.00 | 0.00 | 72 | 1023.2 |
| 20260508094551 | 59 | 227 | 6.0 | 10.0 | 0.00 | 0.00 | 0.00 | 71 | 1023.1 |
| 20260508093034 | 59 | 214 | 6.0 | 11.0 | 0.00 | 0.00 | 0.00 | 70 | 1023.1 |
| 20260508091530 | 59 | 205 | 5.0 | 11.0 | 0.00 | 0.00 | 0.00 | 70 | 1023.2 |
| 20260508090035 | 59 | 185 | 4.0 | 11.0 | 0.00 | 0.00 | 0.00 | 70 | 1023.2 |
| 20260508084527 | 58 | 210 | 3.0 | 11.0 | 0.00 | 0.00 | 0.00 | 69 | 1023.2 |
| 20260508083025 | 57 | 221 | 8.0 | 12.0 | 0.00 | 0.00 | 0.00 | 67 | 1023.1 |
| 20260508081525 | 57 | 200 | 6.0 | 14.0 | 0.00 | 0.00 | 0.00 | 63 | 1022.9 |
| 20260508080032 | 59 | 214 | 5.0 | 9.0 | 0.00 | 0.00 | 0.00 | 60 | 1022.9 |
| 20260508074522 | 58 | 223 | 6.0 | 11.0 | 0.00 | 0.00 | 0.00 | 59 | 1022.8 |
| 20260508073026 | 57 | 137 | 1.0 | 6.0 | 0.00 | 0.00 | 0.00 | 60 | 1022.6 |
| 20260508071518 | 56 | 180 | 2.0 | 6.0 | 0.00 | 0.00 | 0.00 | 61 | 1022.6 |
| 20260508070011 | 55 | 142 | 4.0 | 8.0 | 0.00 | 0.00 | 0.00 | 65 | 1022.5 |